RA43 UWKD-UWKE
Flight info
| Callsign | RA43 |
|---|---|
| Flight time | 0h 30m |
| Altitude | 10000 |
| Route | ORTIM DCT BAKAP |
| Aircraft | SF50/L-SDGRWY/L |
Departure
| Time | 2026-05-07 18:33 |
|---|---|
| Airport | Kazan International Airport (UWKD) |
Arrival
| Time | 2026-05-07 19:03 |
|---|---|
| Airport | Begishevo Airport (UWKE) |
| Time | Latitude | Longitude | Altitude | Speed | Heading |
|---|---|---|---|---|---|
| 2026-05-07 18:06 | 55.60680 | 49.29433 | 409 ft | 0 kts | 34° |
| 2026-05-07 18:24 | 55.60687 | 49.29442 | 409 ft | 4 kts | 34° |
| 2026-05-07 18:24 | 55.60719 | 49.29420 | 409 ft | 8 kts | 304° |
| 2026-05-07 18:24 | 55.60730 | 49.29326 | 409 ft | 6 kts | 224° |
| 2026-05-07 18:24 | 55.60710 | 49.29300 | 409 ft | 2 kts | 211° |
| 2026-05-07 18:25 | 55.60696 | 49.29284 | 409 ft | 5 kts | 214° |
| 2026-05-07 18:25 | 55.60631 | 49.29205 | 409 ft | 16 kts | 216° |
| 2026-05-07 18:25 | 55.60576 | 49.29062 | 409 ft | 13 kts | 265° |
| 2026-05-07 18:25 | 55.60580 | 49.28920 | 409 ft | 10 kts | 276° |
| 2026-05-07 18:26 | 55.60587 | 49.28784 | 409 ft | 14 kts | 273° |
| 2026-05-07 18:26 | 55.60603 | 49.28590 | 409 ft | 17 kts | 294° |
| 2026-05-07 18:26 | 55.60672 | 49.28407 | 410 ft | 18 kts | 303° |
| 2026-05-07 18:26 | 55.60744 | 49.28221 | 410 ft | 18 kts | 304° |
| 2026-05-07 18:27 | 55.60843 | 49.27968 | 410 ft | 26 kts | 304° |
| 2026-05-07 18:27 | 55.60940 | 49.27720 | 410 ft | 23 kts | 303° |
| 2026-05-07 18:27 | 55.61022 | 49.27506 | 410 ft | 19 kts | 303° |
| 2026-05-07 18:27 | 55.61067 | 49.27390 | 409 ft | 16 kts | 306° |
| 2026-05-07 18:28 | 55.61135 | 49.27217 | 410 ft | 10 kts | 304° |
| 2026-05-07 18:28 | 55.61164 | 49.27140 | 410 ft | 5 kts | 303° |
| 2026-05-07 18:28 | 55.61189 | 49.27078 | 410 ft | 4 kts | 300° |
| 2026-05-07 18:28 | 55.61211 | 49.27019 | 410 ft | 6 kts | 302° |
| 2026-05-07 18:29 | 55.61219 | 49.26948 | 410 ft | 6 kts | 253° |
| 2026-05-07 18:29 | 55.61184 | 49.26884 | 410 ft | 7 kts | 218° |
| 2026-05-07 18:29 | 55.61172 | 49.26870 | 410 ft | 0 kts | 213° |
| 2026-05-07 18:31 | 55.61170 | 49.26868 | 410 ft | 1 kts | 213° |
| 2026-05-07 18:31 | 55.61132 | 49.26822 | 412 ft | 8 kts | 214° |
| 2026-05-07 18:31 | 55.61069 | 49.26766 | 411 ft | 10 kts | 176° |
| 2026-05-07 18:31 | 55.61038 | 49.26803 | 410 ft | 0 kts | 121° |
| 2026-05-07 18:32 | 55.61037 | 49.26805 | 410 ft | 4 kts | 120° |
| 2026-05-07 18:32 | 55.60855 | 49.27282 | 409 ft | 85 kts | 123° |
| 2026-05-07 18:32 | 55.60427 | 49.28353 | 741 ft | 118 kts | 126° |
| 2026-05-07 18:33 | 55.59931 | 49.29560 | 1290 ft | 119 kts | 126° |
| 2026-05-07 18:33 | 55.59444 | 49.30795 | 1805 ft | 127 kts | 124° |
| 2026-05-07 18:33 | 55.58949 | 49.32089 | 2475 ft | 122 kts | 126° |
| 2026-05-07 18:33 | 55.58459 | 49.33303 | 3078 ft | 127 kts | 123° |
| 2026-05-07 18:34 | 55.57948 | 49.34882 | 3529 ft | 170 kts | 118° |
| 2026-05-07 18:34 | 55.57325 | 49.36843 | 4121 ft | 196 kts | 118° |
| 2026-05-07 18:34 | 55.56678 | 49.38782 | 5300 ft | 180 kts | 118° |
| 2026-05-07 18:34 | 55.56013 | 49.40709 | 6201 ft | 188 kts | 120° |
| 2026-05-07 18:35 | 55.55327 | 49.42681 | 7132 ft | 185 kts | 116° |
| 2026-05-07 18:35 | 55.54748 | 49.44746 | 7919 ft | 198 kts | 113° |
| 2026-05-07 18:35 | 55.54090 | 49.47200 | 7978 ft | 242 kts | 113° |
| 2026-05-07 18:35 | 55.53348 | 49.50001 | 7971 ft | 253 kts | 113° |
| 2026-05-07 18:36 | 55.52603 | 49.52812 | 7969 ft | 253 kts | 113° |
| 2026-05-07 18:36 | 55.51859 | 49.55627 | 7967 ft | 253 kts | 113° |
| 2026-05-07 18:36 | 55.51160 | 49.58478 | 7966 ft | 253 kts | 109° |
| 2026-05-07 18:36 | 55.50542 | 49.61387 | 8075 ft | 253 kts | 108° |
| 2026-05-07 18:37 | 55.50153 | 49.63245 | 8623 ft | 234 kts | 108° |
| 2026-05-07 18:37 | 55.49668 | 49.65813 | 9508 ft | 208 kts | 104° |
| 2026-05-07 18:37 | 55.49288 | 49.68255 | 9955 ft | 214 kts | 102° |
| 2026-05-07 18:37 | 55.48924 | 49.70928 | 9972 ft | 233 kts | 101° |
| 2026-05-07 18:38 | 55.48543 | 49.73800 | 9975 ft | 247 kts | 101° |
| 2026-05-07 18:38 | 55.48147 | 49.76796 | 9975 ft | 256 kts | 101° |
| 2026-05-07 18:38 | 55.47584 | 49.81098 | 9980 ft | 279 kts | 101° |
| 2026-05-07 18:38 | 55.47161 | 49.84339 | 9967 ft | 273 kts | 101° |
| 2026-05-07 18:39 | 55.46874 | 49.86557 | 9976 ft | 277 kts | 101° |
| 2026-05-07 18:39 | 55.46440 | 49.89887 | 9959 ft | 281 kts | 101° |
| 2026-05-07 18:39 | 55.46047 | 49.93270 | 9958 ft | 282 kts | 98° |
| 2026-05-07 18:39 | 55.45701 | 49.96661 | 9960 ft | 274 kts | 98° |
| 2026-05-07 18:40 | 55.45370 | 49.99936 | 9958 ft | 275 kts | 98° |
| 2026-05-07 18:40 | 55.45035 | 50.03276 | 9964 ft | 279 kts | 98° |
| 2026-05-07 18:40 | 55.44698 | 50.06661 | 9963 ft | 282 kts | 98° |
| 2026-05-07 18:40 | 55.44359 | 50.10075 | 9969 ft | 284 kts | 98° |
| 2026-05-07 18:41 | 55.44019 | 50.13509 | 9966 ft | 286 kts | 98° |
| 2026-05-07 18:41 | 55.43665 | 50.16958 | 9967 ft | 287 kts | 99° |
| 2026-05-07 18:41 | 55.43200 | 50.20379 | 9967 ft | 288 kts | 102° |
| 2026-05-07 18:41 | 55.42693 | 50.23800 | 9967 ft | 289 kts | 103° |
| 2026-05-07 18:42 | 55.42179 | 50.27221 | 9971 ft | 290 kts | 103° |
| 2026-05-07 18:42 | 55.41661 | 50.30649 | 9971 ft | 290 kts | 103° |
| 2026-05-07 18:42 | 55.41142 | 50.34082 | 9972 ft | 290 kts | 103° |
| 2026-05-07 18:42 | 55.40624 | 50.37519 | 9971 ft | 291 kts | 103° |
| 2026-05-07 18:43 | 55.40105 | 50.40960 | 9971 ft | 291 kts | 103° |
| 2026-05-07 18:43 | 55.39585 | 50.44405 | 9972 ft | 291 kts | 103° |
| 2026-05-07 18:43 | 55.39065 | 50.47851 | 9972 ft | 292 kts | 103° |
| 2026-05-07 18:43 | 55.38542 | 50.51297 | 9976 ft | 292 kts | 103° |
| 2026-05-07 18:44 | 55.38020 | 50.54747 | 9971 ft | 292 kts | 103° |
| 2026-05-07 18:44 | 55.37543 | 50.58218 | 9971 ft | 291 kts | 100° |
| 2026-05-07 18:44 | 55.37225 | 50.61716 | 9965 ft | 288 kts | 91° |
| 2026-05-07 18:44 | 55.37426 | 50.65192 | 9957 ft | 285 kts | 77° |
| 2026-05-07 18:45 | 55.37813 | 50.68613 | 9956 ft | 285 kts | 78° |
| 2026-05-07 18:45 | 55.38075 | 50.72072 | 9958 ft | 285 kts | 81° |
| 2026-05-07 18:45 | 55.38298 | 50.75542 | 9958 ft | 286 kts | 82° |
| 2026-05-07 18:45 | 55.38496 | 50.79024 | 9957 ft | 286 kts | 83° |
| 2026-05-07 18:46 | 55.38626 | 50.82516 | 9958 ft | 287 kts | 85° |
| 2026-05-07 18:46 | 55.38742 | 50.86016 | 9958 ft | 287 kts | 85° |
| 2026-05-07 18:46 | 55.38852 | 50.89474 | 9958 ft | 287 kts | 85° |
| 2026-05-07 18:46 | 55.38962 | 50.92977 | 9958 ft | 287 kts | 85° |
| 2026-05-07 18:47 | 55.39072 | 50.96481 | 9958 ft | 287 kts | 85° |
| 2026-05-07 18:47 | 55.39181 | 50.99985 | 9958 ft | 287 kts | 85° |
| 2026-05-07 18:47 | 55.39293 | 51.03497 | 9958 ft | 287 kts | 85° |
| 2026-05-07 18:47 | 55.39404 | 51.07002 | 9958 ft | 287 kts | 85° |
| 2026-05-07 18:48 | 55.39516 | 51.10508 | 9967 ft | 288 kts | 85° |
| 2026-05-07 18:48 | 55.39632 | 51.14025 | 9968 ft | 288 kts | 85° |
| 2026-05-07 18:48 | 55.39750 | 51.17541 | 9967 ft | 288 kts | 85° |
| 2026-05-07 18:48 | 55.39866 | 51.21066 | 9968 ft | 289 kts | 85° |
| 2026-05-07 18:49 | 55.39983 | 51.24596 | 9965 ft | 289 kts | 85° |
| 2026-05-07 18:49 | 55.40098 | 51.28122 | 9965 ft | 289 kts | 85° |
| 2026-05-07 18:49 | 55.40214 | 51.31647 | 9965 ft | 289 kts | 85° |
| 2026-05-07 18:49 | 55.40329 | 51.35183 | 9965 ft | 289 kts | 85° |
| 2026-05-07 18:50 | 55.40445 | 51.38715 | 9965 ft | 289 kts | 85° |
| 2026-05-07 18:50 | 55.40554 | 51.42122 | 9963 ft | 266 kts | 85° |
| 2026-05-07 18:50 | 55.40651 | 51.45253 | 9952 ft | 250 kts | 85° |
| 2026-05-07 18:50 | 55.40742 | 51.48293 | 9953 ft | 248 kts | 85° |
| 2026-05-07 18:51 | 55.40833 | 51.51310 | 9957 ft | 246 kts | 85° |
| 2026-05-07 18:51 | 55.40919 | 51.54228 | 9481 ft | 231 kts | 85° |
| 2026-05-07 18:51 | 55.40996 | 51.57082 | 8361 ft | 231 kts | 85° |
| 2026-05-07 18:51 | 55.41046 | 51.59812 | 7846 ft | 219 kts | 85° |
| 2026-05-07 18:52 | 55.41102 | 51.62540 | 7450 ft | 227 kts | 85° |
| 2026-05-07 18:52 | 55.41154 | 51.65341 | 6997 ft | 230 kts | 85° |
| 2026-05-07 18:52 | 55.41201 | 51.68129 | 6300 ft | 224 kts | 85° |
| 2026-05-07 18:52 | 55.41228 | 51.70797 | 5521 ft | 214 kts | 86° |
| 2026-05-07 18:53 | 55.41228 | 51.73365 | 4977 ft | 201 kts | 87° |
| 2026-05-07 18:53 | 55.41201 | 51.75778 | 4955 ft | 204 kts | 88° |
| 2026-05-07 18:53 | 55.41155 | 51.78356 | 4965 ft | 214 kts | 88° |
| 2026-05-07 18:53 | 55.41303 | 51.80897 | 4945 ft | 207 kts | 64° |
| 2026-05-07 18:54 | 55.42119 | 51.82934 | 4959 ft | 204 kts | 48° |
| 2026-05-07 18:54 | 55.43043 | 51.84842 | 4962 ft | 205 kts | 47° |
| 2026-05-07 18:54 | 55.43966 | 51.86755 | 4964 ft | 205 kts | 47° |
| 2026-05-07 18:54 | 55.44887 | 51.88666 | 4965 ft | 203 kts | 47° |
| 2026-05-07 18:55 | 55.45852 | 51.90368 | 4952 ft | 193 kts | 38° |
| 2026-05-07 18:55 | 55.46812 | 51.91997 | 4956 ft | 192 kts | 46° |
| 2026-05-07 18:55 | 55.47688 | 51.93785 | 4953 ft | 192 kts | 44° |
| 2026-05-07 18:55 | 55.48741 | 51.95217 | 4955 ft | 191 kts | 32° |
| 2026-05-07 18:56 | 55.49821 | 51.96584 | 4962 ft | 193 kts | 42° |
| 2026-05-07 18:56 | 55.50701 | 51.98378 | 4966 ft | 194 kts | 49° |
| 2026-05-07 18:56 | 55.51553 | 52.00234 | 4967 ft | 195 kts | 49° |
| 2026-05-07 18:56 | 55.52404 | 52.02092 | 4966 ft | 193 kts | 49° |
| 2026-05-07 18:57 | 55.53227 | 52.03893 | 4967 ft | 184 kts | 49° |
| 2026-05-07 18:57 | 55.54023 | 52.05637 | 4962 ft | 181 kts | 49° |
| 2026-05-07 18:57 | 55.54583 | 52.07651 | 4542 ft | 207 kts | 90° |
| 2026-05-07 18:57 | 55.53859 | 52.09884 | 4367 ft | 219 kts | 140° |
| 2026-05-07 18:58 | 55.52430 | 52.10549 | 4366 ft | 218 kts | 185° |
| 2026-05-07 18:58 | 55.51106 | 52.09415 | 4209 ft | 212 kts | 221° |
| 2026-05-07 18:58 | 55.49999 | 52.07649 | 3947 ft | 217 kts | 225° |
| 2026-05-07 18:58 | 55.48931 | 52.05805 | 3692 ft | 221 kts | 226° |
| 2026-05-07 18:59 | 55.47863 | 52.03853 | 3514 ft | 234 kts | 228° |
| 2026-05-07 18:59 | 55.46656 | 52.01531 | 3496 ft | 273 kts | 229° |
| 2026-05-07 18:59 | 55.45847 | 51.98974 | 3368 ft | 215 kts | 266° |
| 2026-05-07 18:59 | 55.46356 | 51.96740 | 2852 ft | 192 kts | 318° |
| 2026-05-07 19:00 | 55.47474 | 51.95893 | 2618 ft | 167 kts | 359° |
| 2026-05-07 19:00 | 55.48501 | 51.96484 | 2560 ft | 152 kts | 28° |
| 2026-05-07 19:00 | 55.49443 | 51.97363 | 2371 ft | 156 kts | 32° |
| 2026-05-07 19:00 | 55.50332 | 51.98380 | 2328 ft | 150 kts | 39° |
| 2026-05-07 19:01 | 55.51109 | 51.99567 | 2229 ft | 150 kts | 44° |
| 2026-05-07 19:01 | 55.51894 | 52.00788 | 2036 ft | 151 kts | 45° |
| 2026-05-07 19:01 | 55.52654 | 52.02128 | 1759 ft | 157 kts | 48° |
| 2026-05-07 19:01 | 55.53402 | 52.03503 | 1539 ft | 150 kts | 47° |
| 2026-05-07 19:02 | 55.54088 | 52.04751 | 1402 ft | 129 kts | 46° |
| 2026-05-07 19:02 | 55.54634 | 52.05788 | 1225 ft | 108 kts | 47° |
| 2026-05-07 19:02 | 55.55112 | 52.06716 | 993 ft | 96 kts | 45° |
| 2026-05-07 19:02 | 55.55583 | 52.07593 | 715 ft | 99 kts | 45° |
| 2026-05-07 19:03 | 55.55991 | 52.08361 | 644 ft | 71 kts | 48° |
| 2026-05-07 19:03 | 55.56178 | 52.08718 | 644 ft | 30 kts | 45° |
| 2026-05-07 19:03 | 55.56310 | 52.08962 | 644 ft | 37 kts | 47° |
| 2026-05-07 19:03 | 55.56527 | 52.09373 | 642 ft | 44 kts | 47° |
| 2026-05-07 19:04 | 55.56688 | 52.09685 | 643 ft | 17 kts | 51° |
| 2026-05-07 19:04 | 55.56700 | 52.09782 | 643 ft | 15 kts | 135° |
| 2026-05-07 19:04 | 55.56644 | 52.09876 | 642 ft | 0 kts | 137° |
| 2026-05-07 19:06 | 55.56605 | 52.09942 | 642 ft | 15 kts | 137° |
| 2026-05-07 19:07 | 55.56530 | 52.10056 | 642 ft | 8 kts | 140° |